createdAt,value
2023-09-24T00:01:07.772Z,1.00
2023-09-24T00:03:37.682Z,1.00
2023-09-24T00:06:11.949Z,1.00
2023-09-24T00:08:39.075Z,1.00
2023-09-24T00:11:08.778Z,1.00
2023-09-24T00:13:39.573Z,1.00
2023-09-24T00:16:11.243Z,1.00
2023-09-24T00:18:39.137Z,1.00
2023-09-24T00:21:07.814Z,1.00
2023-09-24T00:23:37.352Z,8.40
2023-09-24T00:26:04.390Z,82.80
2023-09-24T00:28:31.686Z,99.90
2023-09-24T00:31:02.293Z,99.90
2023-09-24T00:33:30.874Z,86.10
2023-09-24T00:36:03.964Z,42.50
2023-09-24T00:38:30.815Z,37.10
2023-09-24T00:40:57.633Z,37.50
2023-09-24T00:43:36.286Z,77.70
2023-09-24T00:46:09.007Z,50.30
2023-09-24T00:48:36.187Z,36.10
2023-09-24T00:51:24.141Z,1.00
2023-09-24T00:53:57.281Z,1.00
2023-09-24T00:56:27.325Z,98.40
2023-09-24T00:58:55.612Z,99.90
2023-09-24T01:01:25.668Z,37.50
2023-09-24T01:03:54.443Z,99.90
2023-09-24T01:06:25.125Z,76.50
2023-09-24T01:08:52.166Z,99.90
2023-09-24T01:11:21.726Z,99.90
2023-09-24T01:13:52.204Z,99.90
2023-09-24T01:16:20.330Z,99.90
2023-09-24T01:18:47.207Z,99.90
2023-09-24T01:21:19.071Z,99.90
2023-09-24T01:23:49.955Z,99.90
2023-09-24T01:26:24.560Z,99.90
2023-09-24T01:28:52.685Z,99.90
2023-09-24T01:31:20.344Z,99.90
2023-09-24T01:33:49.147Z,99.90
2023-09-24T01:36:16.818Z,99.90
2023-09-24T01:38:44.998Z,99.90
2023-09-24T01:41:12.548Z,99.90
2023-09-24T01:43:49.152Z,99.90
2023-09-24T01:46:16.457Z,99.90
2023-09-24T01:48:48.624Z,99.90
2023-09-24T01:51:15.535Z,1.00
2023-09-24T01:53:43.776Z,99.90
2023-09-24T01:56:13.278Z,99.90
2023-09-24T01:58:40.652Z,99.90
2023-09-24T02:01:10.972Z,99.90
2023-09-24T02:03:38.344Z,99.90
2023-09-24T02:06:08.632Z,99.90
2023-09-24T02:08:36.115Z,99.90
2023-09-24T02:11:03.532Z,99.90
2023-09-24T02:13:31.118Z,99.90
2023-09-24T02:15:59.560Z,99.90
2023-09-24T02:18:28.629Z,99.90
2023-09-24T02:20:56.218Z,99.90
2023-09-24T02:23:24.321Z,1.00
2023-09-24T02:25:53.820Z,1.00
2023-09-24T02:28:20.902Z,99.90
2023-09-24T02:30:51.287Z,99.90
2023-09-24T02:33:21.373Z,1.00
2023-09-24T02:35:53.367Z,1.00
2023-09-24T02:38:21.853Z,1.00
2023-09-24T02:40:56.975Z,1.00
2023-09-24T02:43:30.423Z,1.00
2023-09-24T02:45:59.129Z,1.00
2023-09-24T02:48:29.171Z,1.00
2023-09-24T02:50:57.945Z,1.00
2023-09-24T02:53:27.985Z,1.00
2023-09-24T02:55:58.708Z,1.00
2023-09-24T02:58:28.291Z,1.00
2023-09-24T03:00:55.001Z,1.00
2023-09-24T03:03:22.411Z,99.90
2023-09-24T03:05:56.713Z,99.90
2023-09-24T03:08:27.926Z,1.00
2023-09-24T03:10:58.099Z,1.00
2023-09-24T03:13:32.475Z,1.00
2023-09-24T03:16:05.437Z,1.00
2023-09-24T03:18:35.441Z,1.00
2023-09-24T03:21:09.354Z,1.00
2023-09-24T03:23:38.104Z,1.00
2023-09-24T03:26:04.933Z,1.00
2023-09-24T03:28:31.837Z,1.00
2023-09-24T03:30:58.559Z,1.00
2023-09-24T03:33:26.721Z,1.00
2023-09-24T03:35:53.534Z,1.00
2023-09-24T03:38:20.352Z,1.00
2023-09-24T03:40:47.030Z,1.00
2023-09-24T03:43:13.753Z,1.00
2023-09-24T03:45:40.516Z,1.00
2023-09-24T03:48:08.011Z,1.00
2023-09-24T03:50:35.736Z,1.00
2023-09-24T03:53:02.526Z,1.00
2023-09-24T03:55:29.332Z,1.00
2023-09-24T03:57:58.733Z,1.00
2023-09-24T04:00:27.009Z,1.00
2023-09-24T04:02:54.048Z,1.00
2023-09-24T04:05:24.451Z,1.00
2023-09-24T04:07:53.889Z,1.00
2023-09-24T04:10:22.687Z,1.00
2023-09-24T04:12:51.710Z,1.00
2023-09-24T04:15:21.938Z,1.00
2023-09-24T04:17:50.697Z,1.00
2023-09-24T04:20:21.499Z,1.00
2023-09-24T04:22:49.094Z,99.90
2023-09-24T04:25:18.864Z,99.90
2023-09-24T04:27:45.979Z,99.90
2023-09-24T04:30:20.241Z,99.90
2023-09-24T04:32:49.865Z,99.90
2023-09-24T04:35:20.939Z,1.00
2023-09-24T04:37:52.204Z,1.00
2023-09-24T04:40:19.665Z,99.90
2023-09-24T04:42:47.552Z,1.00
2023-09-24T04:45:15.845Z,1.00
2023-09-24T04:47:43.375Z,1.00
2023-09-24T04:50:14.420Z,1.00
2023-09-24T04:52:45.744Z,99.90
2023-09-24T04:55:12.637Z,99.90
2023-09-24T04:57:39.421Z,99.90
2023-09-24T05:00:07.119Z,99.90
2023-09-24T05:02:33.951Z,99.90
2023-09-24T05:05:00.783Z,99.90
2023-09-24T05:07:27.622Z,99.90
2023-09-24T05:09:54.428Z,99.90
2023-09-24T05:12:21.165Z,99.90
2023-09-24T05:14:48.007Z,99.90
2023-09-24T05:17:14.767Z,99.90
2023-09-24T05:19:41.516Z,99.90
2023-09-24T05:22:09.019Z,99.90
2023-09-24T05:24:36.013Z,99.90
2023-09-24T05:27:02.843Z,99.90
2023-09-24T05:29:29.650Z,99.90
2023-09-24T05:31:57.014Z,99.90
2023-09-24T05:34:24.322Z,1.00
2023-09-24T05:36:51.357Z,1.00
2023-09-24T05:39:18.126Z,1.00
2023-09-24T05:41:45.381Z,1.00
2023-09-24T05:44:13.239Z,1.00
2023-09-24T05:46:40.154Z,1.00
2023-09-24T05:49:06.859Z,1.00
2023-09-24T05:51:33.546Z,1.00
2023-09-24T05:54:00.343Z,1.00
2023-09-24T05:56:27.594Z,1.00
2023-09-24T05:58:54.703Z,99.90
2023-09-24T06:01:21.454Z,99.90
2023-09-24T06:03:48.782Z,99.90
2023-09-24T06:06:15.900Z,99.90
2023-09-24T06:08:42.641Z,99.90
2023-09-24T06:11:09.676Z,99.90
2023-09-24T06:13:36.875Z,99.90
2023-09-24T06:16:04.276Z,99.90
2023-09-24T06:18:31.248Z,1.00
2023-09-24T06:20:59.663Z,1.00
2023-09-24T06:23:26.602Z,99.90
2023-09-24T06:26:00.327Z,99.90
2023-09-24T06:28:27.842Z,99.90
2023-09-24T06:31:02.286Z,1.00
2023-09-24T06:33:29.559Z,1.00
2023-09-24T06:35:57.216Z,2.20
2023-09-24T06:38:24.331Z,81.20
2023-09-24T06:41:01.151Z,1.00
2023-09-24T06:43:28.429Z,1.00
2023-09-24T06:45:56.232Z,1.00
2023-09-24T06:48:24.007Z,1.00
2023-09-24T06:50:51.895Z,99.90
2023-09-24T06:53:19.392Z,99.90
2023-09-24T06:55:46.995Z,99.90
2023-09-24T06:58:14.626Z,69.90
2023-09-24T07:00:41.492Z,1.00
2023-09-24T07:03:08.403Z,1.00
2023-09-24T07:05:37.836Z,1.00
2023-09-24T07:08:05.295Z,1.00
2023-09-24T07:10:32.214Z,1.00
2023-09-24T07:12:59.043Z,1.00
2023-09-24T07:15:25.849Z,1.00
2023-09-24T07:17:52.723Z,1.00
2023-09-24T07:20:21.488Z,1.00
2023-09-24T07:22:48.591Z,1.00
2023-09-24T07:25:15.589Z,99.90
2023-09-24T07:27:44.920Z,99.90
2023-09-24T07:30:12.139Z,99.90
2023-09-24T07:32:39.592Z,99.90
2023-09-24T07:35:09.164Z,99.90
2023-09-24T07:37:36.067Z,99.90
2023-09-24T07:40:03.386Z,99.90
2023-09-24T07:42:30.963Z,58.60
2023-09-24T07:44:57.740Z,60.70
2023-09-24T07:47:24.549Z,7.50
2023-09-24T07:49:51.626Z,1.00
2023-09-24T07:52:18.379Z,1.00
2023-09-24T07:54:47.255Z,1.00
2023-09-24T07:57:16.003Z,1.00
2023-09-24T07:59:43.044Z,1.00
2023-09-24T08:02:09.890Z,1.00
2023-09-24T08:04:36.656Z,1.00
2023-09-24T08:07:03.414Z,1.00
2023-09-24T08:09:31.303Z,1.00
2023-09-24T08:11:58.260Z,1.00
2023-09-24T08:14:26.238Z,1.00
2023-09-24T08:16:53.354Z,1.00
2023-09-24T08:19:20.246Z,1.00
2023-09-24T08:21:47.003Z,1.00
2023-09-24T08:24:13.710Z,1.00
2023-09-24T08:26:40.604Z,1.00
2023-09-24T08:29:08.118Z,1.00
2023-09-24T08:31:36.060Z,1.00
2023-09-24T08:34:03.938Z,1.00
2023-09-24T08:36:31.101Z,1.00
2023-09-24T08:38:58.229Z,1.00
2023-09-24T08:41:25.531Z,99.90
2023-09-24T08:43:56.248Z,99.90
2023-09-24T08:46:23.997Z,99.90
2023-09-24T08:48:52.498Z,99.90
2023-09-24T08:51:20.345Z,99.90
2023-09-24T08:53:47.150Z,99.90
2023-09-24T08:56:16.271Z,99.90
2023-09-24T08:58:43.976Z,99.90
2023-09-24T09:01:12.239Z,99.90
2023-09-24T09:03:40.195Z,99.90
2023-09-24T09:06:07.192Z,99.90
2023-09-24T09:08:55.542Z,99.90
2023-09-24T09:11:36.837Z,99.90
2023-09-24T09:14:03.784Z,99.90
2023-09-24T09:16:30.543Z,99.90
2023-09-24T09:19:04.441Z,99.90
2023-09-24T09:21:33.952Z,99.90
2023-09-24T09:24:00.701Z,99.90
2023-09-24T09:26:35.026Z,99.90
2023-09-24T09:29:06.004Z,99.90
2023-09-24T09:31:52.641Z,99.90
2023-09-24T09:34:20.668Z,99.90
2023-09-24T09:36:48.896Z,99.90
2023-09-24T09:39:16.582Z,99.90
2023-09-24T09:41:45.908Z,99.90
2023-09-24T09:44:17.468Z,99.90
2023-09-24T09:46:48.642Z,99.90
2023-09-24T09:49:21.933Z,99.90
2023-09-24T09:51:50.209Z,99.90
2023-09-24T09:54:23.319Z,99.90
2023-09-24T09:56:53.554Z,99.90
2023-09-24T09:59:22.089Z,99.90
2023-09-24T10:01:50.115Z,99.90
2023-09-24T10:04:18.387Z,86.70
2023-09-24T10:06:46.023Z,20.30
2023-09-24T10:09:40.817Z,1.00
2023-09-24T10:12:08.984Z,1.00
2023-09-24T10:14:44.137Z,1.00
2023-09-24T10:17:17.525Z,1.00
2023-09-24T10:19:52.601Z,1.00
2023-09-24T10:22:29.601Z,1.00
2023-09-24T10:25:00.506Z,1.00
2023-09-24T10:27:34.411Z,1.00
2023-09-24T10:30:03.004Z,1.00
2023-09-24T10:32:30.779Z,1.00
2023-09-24T10:35:03.602Z,1.00
2023-09-24T10:37:39.832Z,1.00
2023-09-24T10:40:11.496Z,1.00
2023-09-24T10:42:43.680Z,1.00
2023-09-24T10:45:12.073Z,1.00
2023-09-24T10:47:43.553Z,1.00
2023-09-24T10:50:10.910Z,1.00
2023-09-24T10:52:47.743Z,1.00
2023-09-24T10:55:15.755Z,1.00
2023-09-24T10:57:54.176Z,1.00
2023-09-24T11:00:22.913Z,1.00
2023-09-24T11:03:07.043Z,1.00
2023-09-24T11:05:47.344Z,1.00
2023-09-24T11:08:16.365Z,1.00
2023-09-24T11:10:48.816Z,1.00
2023-09-24T11:13:15.969Z,1.00
2023-09-24T11:15:43.492Z,1.00
2023-09-24T11:18:13.819Z,1.00
2023-09-24T11:20:49.417Z,1.00
2023-09-24T11:23:16.274Z,1.00
2023-09-24T11:25:48.275Z,1.00
2023-09-24T11:28:15.418Z,1.00
2023-09-24T11:30:43.657Z,1.00
2023-09-24T11:33:25.050Z,1.00
2023-09-24T11:35:54.374Z,1.00
2023-09-24T11:38:37.334Z,1.00
2023-09-24T11:41:07.705Z,1.00
2023-09-24T11:43:35.560Z,1.00
2023-09-24T11:46:02.421Z,1.00
2023-09-24T11:48:31.215Z,1.00
2023-09-24T11:51:01.942Z,1.00
2023-09-24T11:53:28.993Z,1.00
2023-09-24T11:56:00.144Z,1.00
2023-09-24T11:58:28.406Z,1.00
2023-09-24T12:00:57.169Z,1.00
2023-09-24T12:03:24.926Z,1.00
2023-09-24T12:05:52.835Z,1.00
2023-09-24T12:08:19.780Z,1.00
2023-09-24T12:10:52.227Z,1.00
2023-09-24T12:13:19.729Z,1.00
2023-09-24T12:15:47.036Z,1.00
2023-09-24T12:18:14.331Z,1.00
2023-09-24T12:20:42.658Z,1.00
2023-09-24T12:23:10.980Z,1.00
2023-09-24T12:25:40.168Z,1.00
2023-09-24T12:28:08.702Z,1.00
2023-09-24T12:30:37.121Z,1.00
2023-09-24T12:33:04.583Z,1.00
2023-09-24T12:35:35.002Z,1.00
2023-09-24T12:38:02.842Z,1.00
2023-09-24T12:40:31.468Z,1.00
2023-09-24T12:42:58.408Z,1.00
2023-09-24T12:45:28.421Z,1.00
2023-09-24T12:47:55.791Z,1.00
2023-09-24T12:50:23.139Z,1.00
2023-09-24T12:52:50.001Z,1.00
2023-09-24T12:55:17.979Z,1.00
2023-09-24T12:57:47.128Z,1.00
2023-09-24T13:00:16.402Z,1.00
2023-09-24T13:02:47.358Z,1.00
2023-09-24T13:05:17.051Z,1.00
2023-09-24T13:07:46.279Z,1.00
2023-09-24T13:10:16.296Z,1.00
2023-09-24T13:12:44.974Z,1.00
2023-09-24T13:15:12.463Z,1.00
2023-09-24T13:17:39.961Z,1.00
2023-09-24T13:20:07.476Z,1.00
2023-09-24T13:22:34.399Z,1.00
2023-09-24T13:25:01.512Z,1.00
2023-09-24T13:27:28.619Z,1.00
2023-09-24T13:29:55.611Z,1.00
2023-09-24T13:32:23.055Z,1.00
2023-09-24T13:34:50.204Z,1.00
2023-09-24T13:37:17.437Z,1.00
2023-09-24T13:39:44.757Z,1.00
2023-09-24T13:42:11.680Z,1.00
2023-09-24T13:44:38.680Z,1.00
2023-09-24T13:47:05.509Z,1.00
2023-09-24T13:49:36.902Z,1.00
2023-09-24T13:52:04.579Z,1.00
2023-09-24T13:54:33.156Z,1.00
2023-09-24T13:57:00.580Z,1.00
2023-09-24T13:59:27.399Z,1.00
2023-09-24T14:01:54.190Z,1.00
2023-09-24T14:04:21.150Z,1.00
2023-09-24T14:06:48.810Z,1.00
2023-09-24T14:09:34.038Z,1.00
2023-09-24T14:12:22.605Z,1.00
2023-09-24T14:14:50.773Z,1.00
2023-09-24T14:17:17.591Z,1.00
2023-09-24T14:19:44.315Z,1.00
2023-09-24T14:22:11.152Z,1.00
2023-09-24T14:24:39.340Z,1.00
2023-09-24T14:27:08.582Z,1.00
2023-09-24T14:29:35.390Z,1.00
2023-09-24T14:32:02.283Z,1.00
2023-09-24T14:34:32.097Z,1.00
2023-09-24T14:36:59.303Z,1.00
2023-09-24T14:39:26.238Z,1.00
2023-09-24T14:41:53.069Z,1.00
2023-09-24T14:44:19.936Z,1.00
2023-09-24T14:46:46.785Z,1.00
2023-09-24T14:49:14.173Z,1.00
2023-09-24T14:51:41.279Z,1.00
2023-09-24T14:54:09.189Z,1.00
2023-09-24T14:56:35.969Z,1.00
2023-09-24T14:59:03.191Z,1.00
2023-09-24T15:01:29.962Z,1.00
2023-09-24T15:03:56.871Z,1.00
2023-09-24T15:06:24.215Z,1.00
2023-09-24T15:08:51.036Z,1.00
2023-09-24T15:11:17.905Z,1.00
2023-09-24T15:13:44.626Z,1.00
2023-09-24T15:16:11.408Z,1.00
2023-09-24T15:18:40.381Z,1.00
2023-09-24T15:21:14.928Z,1.00
2023-09-24T15:23:41.890Z,1.00
2023-09-24T15:26:20.752Z,1.00
2023-09-24T15:28:50.710Z,1.00
2023-09-24T15:31:29.977Z,1.00
2023-09-24T15:34:10.066Z,1.00
2023-09-24T15:39:59.801Z,1.00
2023-09-24T15:42:41.668Z,1.00
2023-09-24T15:45:50.914Z,1.00
2023-09-24T15:48:50.876Z,1.00
2023-09-24T15:51:29.831Z,1.00
2023-09-24T15:54:20.780Z,1.00
2023-09-24T15:57:14.623Z,1.00
2023-09-24T16:00:03.427Z,1.00
2023-09-24T16:03:07.938Z,1.00
2023-09-24T16:05:42.280Z,1.00
2023-09-24T16:08:44.801Z,1.00
2023-09-24T16:11:33.056Z,1.00
2023-09-24T16:17:30.949Z,1.00
2023-09-24T16:20:12.933Z,1.00
2023-09-24T16:22:40.479Z,1.00
2023-09-24T16:25:07.827Z,1.00
2023-09-24T16:27:37.768Z,1.00
2023-09-24T16:30:04.884Z,1.00
2023-09-24T16:32:31.800Z,1.00
2023-09-24T16:34:58.675Z,1.00
2023-09-24T16:37:26.125Z,1.00
2023-09-24T16:39:55.527Z,1.00
2023-09-24T16:42:22.616Z,1.00
2023-09-24T16:44:49.537Z,1.00
2023-09-24T16:47:16.499Z,1.00
2023-09-24T16:49:46.124Z,1.00
2023-09-24T16:52:12.981Z,1.00
2023-09-24T16:54:41.245Z,1.00
2023-09-24T16:57:09.095Z,1.00
2023-09-24T16:59:40.873Z,1.00
2023-09-24T17:02:13.140Z,1.00
2023-09-24T17:05:09.822Z,1.00
2023-09-24T17:10:52.518Z,1.00
2023-09-24T17:13:19.533Z,1.00
2023-09-24T17:15:49.954Z,1.00
2023-09-24T17:18:17.031Z,1.00
2023-09-24T17:20:58.867Z,1.00
2023-09-24T17:23:27.652Z,1.00
2023-09-24T17:25:57.520Z,1.00
2023-09-24T17:29:03.158Z,1.00
2023-09-24T17:31:38.866Z,1.00
2023-09-24T17:38:11.267Z,1.00
2023-09-24T17:41:01.306Z,1.00
2023-09-24T17:47:40.180Z,1.00
2023-09-24T17:50:27.427Z,1.00
2023-09-24T17:52:54.324Z,1.00
2023-09-24T17:55:40.720Z,1.00
2023-09-24T18:01:45.501Z,1.00
2023-09-24T18:04:24.830Z,1.00
2023-09-24T18:07:12.396Z,1.00
2023-09-24T18:13:22.351Z,1.00
2023-09-24T18:24:14.135Z,1.00
2023-09-24T18:26:48.814Z,1.00
2023-09-24T18:29:17.770Z,1.00
2023-09-24T18:31:48.362Z,1.00
2023-09-24T18:34:22.928Z,1.00
2023-09-24T18:36:50.967Z,1.00
2023-09-24T18:39:28.583Z,1.00
2023-09-24T18:41:58.108Z,1.00
2023-09-24T18:44:35.046Z,1.00
2023-09-24T18:47:13.968Z,1.00
2023-09-24T18:50:00.873Z,1.00
2023-09-24T18:55:58.388Z,1.00
2023-09-24T18:58:50.961Z,1.00
2023-09-24T19:02:24.246Z,1.00
2023-09-24T19:04:54.034Z,1.00
2023-09-24T19:07:49.104Z,1.00
2023-09-24T19:10:34.823Z,31.20
2023-09-24T19:13:10.873Z,55.70
2023-09-24T19:15:45.248Z,82.80
2023-09-24T19:18:15.200Z,99.90
2023-09-24T19:20:55.530Z,99.90
2023-09-24T19:23:57.078Z,99.90
2023-09-24T19:26:26.970Z,99.90
2023-09-24T19:29:06.471Z,1.00
2023-09-24T19:31:37.126Z,99.90
2023-09-24T19:34:09.453Z,99.90
2023-09-24T19:36:41.457Z,99.90
2023-09-24T19:39:12.500Z,99.90
2023-09-24T19:41:46.884Z,99.90
2023-09-24T19:44:32.090Z,99.90
2023-09-24T19:46:59.233Z,99.90
2023-09-24T19:49:33.945Z,99.90
2023-09-24T19:52:09.536Z,99.90
2023-09-24T19:54:36.885Z,99.90
2023-09-24T19:57:17.278Z,99.90
2023-09-24T20:02:55.461Z,99.90
2023-09-24T20:05:44.073Z,1.00
2023-09-24T20:08:14.243Z,1.00
2023-09-24T20:10:44.627Z,1.00
2023-09-24T20:13:11.671Z,1.00
2023-09-24T20:15:38.722Z,1.00
2023-09-24T20:18:07.641Z,1.00
2023-09-24T20:20:42.171Z,1.00
2023-09-24T20:23:09.725Z,1.00
2023-09-24T20:25:45.366Z,1.00
2023-09-24T20:28:12.370Z,1.00
2023-09-24T20:30:39.571Z,1.00
2023-09-24T20:33:21.315Z,1.00
2023-09-24T20:35:55.481Z,1.00
2023-09-24T20:38:29.034Z,1.00
2023-09-24T20:41:08.423Z,1.00
2023-09-24T20:43:37.553Z,1.00
2023-09-24T20:46:08.550Z,1.00
2023-09-24T20:48:35.788Z,1.00
2023-09-24T20:54:17.788Z,1.00
2023-09-24T20:56:53.968Z,99.90
2023-09-24T20:59:31.423Z,99.90
2023-09-24T21:05:43.593Z,22.40
2023-09-24T21:11:56.460Z,1.00
2023-09-24T21:14:32.860Z,1.00
2023-09-24T21:27:47.956Z,1.00
2023-09-24T21:30:14.852Z,1.00
2023-09-24T21:32:41.805Z,1.00
2023-09-24T21:35:08.767Z,1.00
2023-09-24T21:37:35.585Z,1.00
2023-09-24T21:40:04.119Z,1.00
2023-09-24T21:42:31.097Z,1.00
2023-09-24T21:45:01.481Z,1.00
2023-09-24T21:47:30.402Z,1.00
2023-09-24T21:49:57.261Z,1.00
2023-09-24T21:52:24.123Z,1.00
2023-09-24T21:54:54.544Z,1.00
2023-09-24T21:57:22.066Z,1.00
2023-09-24T21:59:48.886Z,1.00
2023-09-24T22:02:16.118Z,1.00
2023-09-24T22:04:43.219Z,1.00
2023-09-24T22:07:10.433Z,1.00
2023-09-24T22:09:37.548Z,1.00
2023-09-24T22:12:04.577Z,1.00
2023-09-24T22:14:31.365Z,1.00
2023-09-24T22:16:58.349Z,1.00
2023-09-24T22:19:25.162Z,1.00
2023-09-24T22:21:51.979Z,1.00
2023-09-24T22:24:19.036Z,1.00
2023-09-24T22:26:45.796Z,1.00
2023-09-24T22:29:12.598Z,1.00
2023-09-24T22:31:39.354Z,1.00
2023-09-24T22:34:07.159Z,1.00
2023-09-24T22:36:34.453Z,1.00
2023-09-24T22:39:01.714Z,1.00
2023-09-24T22:41:28.705Z,1.00
2023-09-24T22:43:55.510Z,1.00
2023-09-24T22:46:22.300Z,1.00
2023-09-24T22:48:49.560Z,1.00
2023-09-24T22:51:16.624Z,1.00
2023-09-24T22:53:44.098Z,1.00
2023-09-24T22:56:11.230Z,1.00
2023-09-24T22:58:38.720Z,1.00
2023-09-24T23:01:06.471Z,1.00
2023-09-24T23:03:33.886Z,1.00
2023-09-24T23:06:00.778Z,1.00
2023-09-24T23:08:27.886Z,1.00
2023-09-24T23:10:54.794Z,1.00
2023-09-24T23:13:21.624Z,1.00
2023-09-24T23:15:48.654Z,1.00
2023-09-24T23:18:15.580Z,1.00
2023-09-24T23:20:49.173Z,1.00
2023-09-24T23:23:19.896Z,43.40
2023-09-24T23:25:47.287Z,99.90
2023-09-24T23:28:14.487Z,99.90
2023-09-24T23:30:44.691Z,99.90
2023-09-24T23:33:12.970Z,99.90
2023-09-24T23:35:41.567Z,99.90
2023-09-24T23:38:09.807Z,99.90
2023-09-24T23:40:36.685Z,99.90
2023-09-24T23:43:03.865Z,1.00
2023-09-24T23:45:36.736Z,1.00
2023-09-24T23:48:08.879Z,1.00
2023-09-24T23:50:39.613Z,1.00
2023-09-24T23:53:07.378Z,1.00
2023-09-24T23:55:35.432Z,1.00
2023-09-24T23:58:02.525Z,1.00
